Flight Track Log - Related Links

Times and Time Zones

All times are in EST time to prevent confusion due to time zone crossing. See the USC110 flight status page for this flight to view local times or setup timezone preferences in your user account.

Time Position Orientation Groundspeed Altitude Reporting Facility
EST Latitude Longitude Course Direction KTS MPH feet Rate Location/Type
Wed 05:31:30 AM 39.8083 -82.9389 200° South 105 121 900  Level Indianapolis Center
Wed 05:31:55 AM 39.7994 -82.9431 200° South 92 106 1,300 847 Climbing Indianapolis Center
Wed 05:32:55 AM 39.7814 -82.9128 128° Southeast 111 128 2,100 835 Climbing Indianapolis Center
Wed 05:33:14 AM 39.7756 -82.9056 136° Southeast 101 116 2,400 984 Climbing Indianapolis Center
Wed 05:33:56 AM 39.7631 -82.8828 126° Southeast 106 122 3,100 700 Climbing Indianapolis Center
Wed 05:34:14 AM 39.7581 -82.8717 120° Southeast 103 119 3,100 896 Level Indianapolis Center
Wed 05:35:03 AM 39.7369 -82.8706 178° South 95 109 4,100 1,082 Climbing Indianapolis Center
Wed 05:35:15 AM 39.7322 -82.8692 167° South 104 120 4,200 1,000 Climbing Indianapolis Center
Wed 05:36:03 AM 39.7083 -82.8631 169° South 97 112 5,100 885 Climbing Indianapolis Center
Wed 05:36:16 AM 39.7058 -82.8611 149° Southeast 100 115 5,100 873 Level Indianapolis Center
Wed 05:36:58 AM 39.6839 -82.8539 166° South 101 116 5,900 885 Climbing Indianapolis Center
Wed 05:37:17 AM 39.6797 -82.8503 146° Southeast 99 114 6,000 800 Climbing Indianapolis Center
Wed 05:37:58 AM 39.6556 -82.8439 168° South 105 121 6,700 900 Climbing Indianapolis Center
Wed 05:38:17 AM 39.6517 -82.8411 151° Southeast 102 117 6,900 750 Climbing Indianapolis Center
Wed 05:39:18 AM 39.6214 -82.8322 167° South 108 124 7,700 787 Climbing Indianapolis Center
Wed 05:40:19 AM 39.5908 -82.8208 164° South 112 129 8,500 689 Climbing Indianapolis Center
Wed 05:41:20 AM 39.5583 -82.8114 167° South 118 136 9,100 298 Climbing Indianapolis Center
Wed 05:42:20 AM 39.5167 -82.7989 167° South 151 174 9,100  Level Indianapolis Center
Wed 05:43:21 AM 39.4750 -82.7844 165° South 155 178 9,100  Level Indianapolis Center
Wed 05:44:22 AM 39.4222 -82.7675 166° South 160 184 9,100  Level Indianapolis Center
Wed 05:45:22 AM 39.3764 -82.7514 165° South 167 192 9,100  Level Indianapolis Center
Wed 05:46:23 AM 39.3339 -82.7300 159° South 166 191 9,100  Level Indianapolis Center
Wed 05:47:24 AM 39.2903 -82.7092 160° South 167 192 9,100  Level Indianapolis Center
Wed 05:48:25 AM 39.2481 -82.6900 161° South 163 188 9,100 -50 Level Indianapolis Center
Wed 05:49:25 AM 39.2033 -82.6697 161° South 166 191 9,000 -50 Descending Indianapolis Center
Wed 05:50:26 AM 39.1583 -82.6478 159° South 165 190 9,000  Level Indianapolis Center
Wed 05:51:27 AM 39.1156 -82.6278 160° South 163 188 9,000  Level Indianapolis Center
Wed 05:52:27 AM 39.0722 -82.6094 162° South 163 188 9,000  Level Indianapolis Center
Wed 05:53:28 AM 39.0289 -82.5908 162° South 164 189 9,000  Level Indianapolis Center
Wed 05:54:29 AM 38.9864 -82.5706 160° South 163 188 9,000  Level Indianapolis Center
Wed 05:55:30 AM 38.9431 -82.5511 161° South 164 189 9,000  Level Indianapolis Center
Wed 05:56:30 AM 38.9006 -82.5317 160° South 162 186 9,000  Level Indianapolis Center
Wed 05:57:31 AM 38.8583 -82.5136 162° South 161 185 9,000  Level Indianapolis Center
Wed 05:58:31 AM 38.8153 -82.4939 160° South 162 186 9,000  Level Indianapolis Center
Wed 05:59:32 AM 38.7733 -82.4739 160° South 161 185 9,000  Level Indianapolis Center
Wed 06:00:33 AM 38.7303 -82.4553 161° South 163 188 9,000  Level Indianapolis Center
Wed 06:01:33 AM 38.6878 -82.4361 161° South 162 186 9,000  Level Indianapolis Center
Wed 06:02:34 AM 38.6456 -82.4164 160° South 161 185 9,000  Level Indianapolis Center
Wed 06:03:34 AM 38.6019 -82.3969 161° South 164 189 9,000  Level Indianapolis Center
Wed 06:04:35 AM 38.5594 -82.3786 161° South 161 185 9,000  Level Indianapolis Center
Wed 06:05:36 AM 38.5164 -82.3586 160° South 164 189 9,000  Level Indianapolis Center
Wed 06:06:36 AM 38.4739 -82.3389 160° South 163 188 9,000  Level Indianapolis Center
Wed 06:07:37 AM 38.4306 -82.3200 161° South 165 190 9,000  Level Indianapolis Center
Wed 06:08:37 AM 38.3881 -82.3014 161° South 162 186 9,000  Level Indianapolis Center
Wed 06:09:38 AM 38.3447 -82.2833 162° South 164 189 9,000  Level Indianapolis Center
Wed 06:10:38 AM 38.3014 -82.2628 160° South 166 191 9,000  Level Indianapolis Center
Wed 06:11:39 AM 38.2575 -82.2436 161° South 166 191 9,000  Level Indianapolis Center
Wed 06:12:39 AM 38.2142 -82.2236 160° South 165 190 9,000  Level Indianapolis Center
Wed 06:13:40 AM 38.1614 -82.2014 162° South 166 191 9,000  Level Indianapolis Center
Wed 06:14:41 AM 38.1161 -82.1800 160° South 169 194 9,000  Level Indianapolis Center
Wed 06:15:41 AM 38.0747 -82.1625 162° South 169 194 9,000  Level Indianapolis Center
Wed 06:16:42 AM 38.0283 -82.1428 161° South 166 191 9,000  Level Indianapolis Center
Wed 06:17:42 AM 37.9822 -82.1228 161° South 173 199 9,000  Level Indianapolis Center
Wed 06:18:43 AM 37.9381 -82.1031 161° South 170 196 9,000  Level Indianapolis Center
Wed 06:19:44 AM 37.8931 -82.0833 161° South 171 197 9,000  Level Indianapolis Center
Wed 06:20:44 AM 37.8469 -82.0628 161° South 174 200 9,000  Level Indianapolis Center
Wed 06:21:45 AM 37.8056 -82.0442 160° South 169 194 9,000  Level Indianapolis Center
Wed 06:22:45 AM 37.7586 -82.0244 162° South 174 200 9,000  Level Indianapolis Center
Wed 06:23:46 AM 37.7144 -82.0050 161° South 169 194 9,000  Level Indianapolis Center
Wed 06:24:47 AM 37.6692 -81.9853 161° South 169 194 9,000  Level Indianapolis Center
Wed 06:25:47 AM 37.6242 -81.9656 161° South 171 197 9,000  Level Indianapolis Center
Wed 06:26:48 AM 37.5789 -81.9461 161° South 171 197 9,000  Level Indianapolis Center
Wed 06:27:48 AM 37.5333 -81.9264 161° South 172 198 9,000  Level Indianapolis Center
Wed 06:28:49 AM 37.4889 -81.9069 161° South 170 196 9,000  Level Indianapolis Center
Wed 06:29:50 AM 37.4358 -81.8842 161° South 172 198 9,000  Level Indianapolis Center
Wed 06:30:50 AM 37.3922 -81.8656 161° South 167 192 9,000  Level Indianapolis Center
Wed 06:31:51 AM 37.3464 -81.8444 160° South 172 198 9,000  Level Indianapolis Center
Wed 06:32:52 AM 37.3011 -81.8258 162° South 172 198 9,000  Level Indianapolis Center
Wed 06:33:52 AM 37.2544 -81.8053 161° South 176 203 9,000  Level Indianapolis Center
Wed 06:34:53 AM 37.2100 -81.7858 161° South 172 198 9,000  Level Indianapolis Center
Wed 06:35:54 AM 37.1639 -81.7661 161° South 172 198 9,000  Level Indianapolis Center
Wed 06:36:55 AM 37.1183 -81.7467 161° South 172 198 9,000  Level Indianapolis Center
Wed 06:37:55 AM 37.0739 -81.7275 161° South 170 196 9,000  Level Indianapolis Center
Wed 06:38:56 AM 37.0286 -81.7078 161° South 170 196 9,000  Level Indianapolis Center
Wed 06:39:56 AM 36.9842 -81.6889 161° South 170 196 9,000  Level Indianapolis Center
Wed 06:40:57 AM 36.9408 -81.6700 161° South 166 191 9,000  Level Indianapolis Center
Wed 06:41:58 AM 36.8947 -81.6506 161° South 170 196 9,000  Level Indianapolis Center
Wed 06:42:54 AM 36.8503 -81.6367 166° South 169 194 9,000  Level Atlanta Center
Wed 06:43:54 AM 36.8058 -81.6147 158° South 169 194 9,000  Level Atlanta Center
Wed 06:44:54 AM 36.7597 -81.5953 161° South 169 194 9,000  Level Atlanta Center
Wed 06:45:54 AM 36.7133 -81.5761 162° South 169 194 9,000  Level Atlanta Center
Wed 06:46:54 AM 36.6692 -81.5542 158° South 169 194 9,000  Level Atlanta Center
Wed 06:47:54 AM 36.6231 -81.5350 162° South 174 200 9,000  Level Atlanta Center
Wed 06:48:54 AM 36.5789 -81.5156 161° South 174 200 9,000 -50 Level Atlanta Center
Wed 06:49:54 AM 36.5325 -81.4964 162° South 174 200 8,900  Descending Atlanta Center
Wed 06:50:54 AM 36.4861 -81.4772 162° South 174 200 9,000 50 Climbing Atlanta Center
Wed 06:51:54 AM 36.4442 -81.4581 160° South 174 200 9,000 -50 Level Atlanta Center
Wed 06:52:54 AM 36.3978 -81.4389 162° South 174 200 8,900  Descending Atlanta Center
Wed 06:53:54 AM 36.3536 -81.4222 163° South 174 200 9,000  Climbing Atlanta Center
Wed 06:54:54 AM 36.3094 -81.4056 163° South 169 194 8,900 -50 Descending Atlanta Center
Wed 06:55:54 AM 36.2631 -81.3839 159° South 169 194 8,900  Level Atlanta Center
Wed 06:56:54 AM 36.2231 -81.3672 161° South 169 194 8,900  Level Atlanta Center
Wed 06:57:54 AM 36.1789 -81.3481 161° South 169 194 8,900  Level Atlanta Center
Wed 06:58:54 AM 36.1347 -81.3317 163° South 169 194 8,900  Level Atlanta Center
Wed 06:59:54 AM 36.0906 -81.3125 161° South 169 194 8,900  Level Atlanta Center
Wed 07:00:54 AM 36.0483 -81.2933 160° South 169 194 8,900 50 Level Atlanta Center
Wed 07:01:54 AM 36.0042 -81.2744 161° South 169 194 9,000 100 Climbing Atlanta Center
Wed 07:02:54 AM 35.9581 -81.2581 164° South 169 194 9,100  Climbing Atlanta Center
Wed 07:03:47 AM 35.9158 -81.2414 162° South 168 193 9,000 -100 Descending Atlanta Center
Wed 07:03:54 AM 35.9136 -81.2389 138° Southeast 169 194 9,000  Level Atlanta Center
Wed 07:04:24 AM 35.8906 -81.2347 172° South 169 194 9,000  Level Atlanta Center
Wed 07:04:54 AM 35.8694 -81.2200 151° Southeast 169 194 9,000 -167 Level Atlanta Center
Wed 07:05:36 AM 35.8400 -81.2081 162° South 169 194 8,800 -600 Descending Atlanta Center
Wed 07:05:54 AM 35.8250 -81.1933 141° Southeast 169 194 8,400 -982 Descending Atlanta Center
Wed 07:06:31 AM 35.7953 -81.1739 152° Southeast 208 239 7,900 -700 Descending Atlanta Center
Wed 07:06:54 AM 35.7783 -81.1567 140° Southeast 186 214 7,700 -436 Descending Atlanta Center
Wed 07:07:26 AM 35.7528 -81.1394 151° Southeast 203 234 7,500 -500 Descending Atlanta Center
Wed 07:07:54 AM 35.7317 -81.1200 143° Southeast 191 220 7,200 -500 Descending Atlanta Center
Wed 07:08:26 AM 35.7081 -81.1028 149° Southeast 194 223 7,000 -400 Descending Atlanta Center
Wed 07:08:54 AM 35.6911 -81.0881 145° Southeast 191 220 6,800 -436 Descending Atlanta Center
Wed 07:09:21 AM 35.6656 -81.0711 152° Southeast 193 222 6,600 -400 Descending Atlanta Center
Wed 07:09:54 AM 35.6444 -81.0514 143° Southeast 191 220 6,400 -493 Descending Atlanta Center
Wed 07:10:34 AM 35.6106 -81.0297 153° Southeast 190 219 6,000 -400 Descending Atlanta Center
Wed 07:10:54 AM 35.5997 -81.0172 137° Southeast 191 220 6,000 -400 Level Atlanta Center
Wed 07:11:34 AM 35.5678 -80.9903 146° Southeast 192 221 5,600 -500 Descending Atlanta Center
Wed 07:11:54 AM 35.5611 -80.9753 119° Southeast 191 220 5,500 -545 Descending Atlanta Center
Wed 07:12:29 AM 35.5475 -80.9325 111° Southeast 203 234 5,100 -500 Descending Atlanta Center
Wed 07:12:54 AM 35.5386 -80.9122 118° Southeast 186 214 5,000 -100 Descending Atlanta Center
Wed 07:13:29 AM 35.5211 -80.8772 122° Southeast 184 212 5,000 63 Level Atlanta Center
Wed 07:14:30 AM 35.4806 -80.8456 148° Southeast 171 197 5,100 52 Climbing Atlanta Center
Wed 07:15:25 AM 35.4444 -80.8192 149° Southeast 172 198 5,100  Level Atlanta Center
Wed 07:16:37 AM 35.3933 -80.7778 147° Southeast 174 200 5,100 -45 Level Atlanta Center
Wed 07:17:38 AM 35.3508 -80.7464 149° Southeast 177 204 5,000 -344 Descending Atlanta Center
Wed 07:18:39 AM 35.3042 -80.7203 155° Southeast 183 211 4,400 -472 Descending Atlanta Center
Wed 07:19:45 AM 35.2575 -80.6942 155° Southeast 177 204 4,000 -189 Descending Atlanta Center
Wed 07:20:46 AM 35.2117 -80.6933 179° South 161 185 4,000 52 Level Atlanta Center
Wed 07:21:40 AM 35.1703 -80.7103 199° South 158 182 4,100 52 Climbing Atlanta Center
Wed 07:22:41 AM 35.1292 -80.7272 199° South 158 182 4,100  Level Atlanta Center
Wed 07:23:36 AM 35.0986 -80.7564 218° Southwest 160 184 4,100 -209 Level Atlanta Center
Wed 07:24:36 AM 35.0706 -80.7981 231° Southwest 164 189 3,700 -626 Descending Atlanta Center
Wed 07:25:31 AM 35.0614 -80.8517 258° West 170 196 2,900 -385 Descending Atlanta Center
Wed 07:26:25 AM 35.0519 -80.8953 255° West 149 171 3,000 -45 Climbing Atlanta Center
Wed 07:27:44 AM 35.1050 -80.9286 333° Northwest 176 203 2,800 -600 Descending Atlanta Center
Wed 07:28:45 AM 35.1531 -80.9319 357° North 182 209 1,600 -983 Descending Atlanta Center
Wed 07:29:40 AM 35.1928 -80.9356 356° North 153 176 900 -764 Descending Atlanta Center
Wed 07:31:00 AM 35.2000 -80.9333 295° West  Level FlightAware Approximate
Wed 07:38:00 AM 35.2137 -80.9491 295° West  Level Estimated

Login

Don't have an account? Register now (free) for customized features, flight alerts, and more!